sensor_id;sensor_type;location;lat;lon;timestamp;pressure;altitude;pressure_sealevel;temperature;humidity
13080;BME280;6606;49.154;9.280;2023-04-26T00:01:35;99731.06;;;5.91;100.00
13080;BME280;6606;49.154;9.280;2023-04-26T00:04:16;99738.31;;;5.83;100.00
13080;BME280;6606;49.154;9.280;2023-04-26T00:06:59;99742.03;;;5.76;100.00
13080;BME280;6606;49.154;9.280;2023-04-26T00:09:41;99736.03;;;5.70;100.00
13080;BME280;6606;49.154;9.280;2023-04-26T00:12:25;99741.50;;;5.64;100.00
13080;BME280;6606;49.154;9.280;2023-04-26T00:15:09;99748.53;;;5.64;100.00
13080;BME280;6606;49.154;9.280;2023-04-26T00:17:53;99737.31;;;5.57;100.00
13080;BME280;6606;49.154;9.280;2023-04-26T00:20:35;99749.72;;;5.52;100.00
13080;BME280;6606;49.154;9.280;2023-04-26T00:23:17;99737.13;;;5.63;100.00
13080;BME280;6606;49.154;9.280;2023-04-26T00:25:58;99736.97;;;5.69;100.00
13080;BME280;6606;49.154;9.280;2023-04-26T00:28:40;99738.66;;;5.70;100.00
13080;BME280;6606;49.154;9.280;2023-04-26T00:31:23;99744.88;;;5.68;100.00
13080;BME280;6606;49.154;9.280;2023-04-26T00:34:05;99745.63;;;5.71;100.00
13080;BME280;6606;49.154;9.280;2023-04-26T00:36:47;99740.31;;;5.75;100.00
13080;BME280;6606;49.154;9.280;2023-04-26T00:39:29;99738.47;;;5.77;100.00
13080;BME280;6606;49.154;9.280;2023-04-26T00:42:11;99739.59;;;5.69;100.00
13080;BME280;6606;49.154;9.280;2023-04-26T00:44:53;99746.88;;;5.60;100.00
13080;BME280;6606;49.154;9.280;2023-04-26T00:47:38;99744.44;;;5.54;100.00
13080;BME280;6606;49.154;9.280;2023-04-26T00:50:20;99752.56;;;5.44;100.00
13080;BME280;6606;49.154;9.280;2023-04-26T00:53:02;99757.13;;;5.38;100.00
13080;BME280;6606;49.154;9.280;2023-04-26T00:55:45;99752.97;;;5.29;100.00
13080;BME280;6606;49.154;9.280;2023-04-26T00:58:28;99753.13;;;5.24;100.00
13080;BME280;6606;49.154;9.280;2023-04-26T01:01:10;99751.59;;;5.16;100.00
13080;BME280;6606;49.154;9.280;2023-04-26T01:03:54;99760.50;;;5.10;100.00
13080;BME280;6606;49.154;9.280;2023-04-26T01:06:36;99762.47;;;5.02;100.00
13080;BME280;6606;49.154;9.280;2023-04-26T01:09:18;99763.47;;;4.98;100.00
13080;BME280;6606;49.154;9.280;2023-04-26T01:12:01;99760.97;;;4.92;100.00
13080;BME280;6606;49.154;9.280;2023-04-26T01:14:44;99757.69;;;4.83;100.00
13080;BME280;6606;49.154;9.280;2023-04-26T01:17:26;99758.69;;;4.79;100.00
13080;BME280;6606;49.154;9.280;2023-04-26T01:20:12;99753.47;;;4.78;100.00
13080;BME280;6606;49.154;9.280;2023-04-26T01:22:55;99767.53;;;4.75;100.00
13080;BME280;6606;49.154;9.280;2023-04-26T01:25:37;99761.59;;;4.69;100.00
13080;BME280;6606;49.154;9.280;2023-04-26T01:28:19;99761.69;;;4.64;100.00
13080;BME280;6606;49.154;9.280;2023-04-26T01:31:04;99759.28;;;4.55;100.00
13080;BME280;6606;49.154;9.280;2023-04-26T01:33:46;99767.31;;;4.49;100.00
13080;BME280;6606;49.154;9.280;2023-04-26T01:36:28;99758.69;;;4.44;100.00
13080;BME280;6606;49.154;9.280;2023-04-26T01:39:14;99756.22;;;4.37;100.00
13080;BME280;6606;49.154;9.280;2023-04-26T01:41:56;99759.91;;;4.29;100.00
13080;BME280;6606;49.154;9.280;2023-04-26T01:44:38;99757.41;;;4.24;100.00
13080;BME280;6606;49.154;9.280;2023-04-26T01:47:20;99753.19;;;4.17;100.00
13080;BME280;6606;49.154;9.280;2023-04-26T01:50:04;99759.34;;;4.14;100.00
13080;BME280;6606;49.154;9.280;2023-04-26T01:52:46;99752.47;;;4.10;100.00
13080;BME280;6606;49.154;9.280;2023-04-26T01:55:30;99751.66;;;4.07;100.00
13080;BME280;6606;49.154;9.280;2023-04-26T01:58:12;99749.13;;;4.02;100.00
13080;BME280;6606;49.154;9.280;2023-04-26T02:00:55;99750.09;;;3.98;100.00
13080;BME280;6606;49.154;9.280;2023-04-26T02:03:38;99753.66;;;3.95;100.00
13080;BME280;6606;49.154;9.280;2023-04-26T02:06:20;99752.81;;;3.93;100.00
13080;BME280;6606;49.154;9.280;2023-04-26T02:09:02;99752.88;;;3.92;100.00
13080;BME280;6606;49.154;9.280;2023-04-26T02:11:46;99753.81;;;3.89;100.00
13080;BME280;6606;49.154;9.280;2023-04-26T02:14:28;99748.50;;;3.92;100.00
13080;BME280;6606;49.154;9.280;2023-04-26T02:17:10;99746.56;;;3.99;100.00
13080;BME280;6606;49.154;9.280;2023-04-26T02:19:53;99745.47;;;4.11;100.00
13080;BME280;6606;49.154;9.280;2023-04-26T02:22:35;99750.59;;;4.15;100.00
13080;BME280;6606;49.154;9.280;2023-04-26T02:25:18;99744.34;;;4.21;100.00
13080;BME280;6606;49.154;9.280;2023-04-26T02:28:01;99755.59;;;4.26;100.00
13080;BME280;6606;49.154;9.280;2023-04-26T02:30:43;99756.56;;;4.22;100.00
13080;BME280;6606;49.154;9.280;2023-04-26T02:33:25;99756.72;;;4.16;100.00
13080;BME280;6606;49.154;9.280;2023-04-26T02:36:07;99754.97;;;4.15;100.00
13080;BME280;6606;49.154;9.280;2023-04-26T02:38:49;99749.03;;;4.07;100.00
13080;BME280;6606;49.154;9.280;2023-04-26T02:41:32;99759.63;;;4.02;100.00
13080;BME280;6606;49.154;9.280;2023-04-26T02:44:15;99760.56;;;4.00;100.00
13080;BME280;6606;49.154;9.280;2023-04-26T02:46:57;99758.06;;;3.93;100.00
13080;BME280;6606;49.154;9.280;2023-04-26T02:49:38;99760.75;;;3.90;100.00
13080;BME280;6606;49.154;9.280;2023-04-26T02:52:20;99762.63;;;3.85;100.00
13080;BME280;6606;49.154;9.280;2023-04-26T02:55:03;99763.63;;;3.80;100.00
13080;BME280;6606;49.154;9.280;2023-04-26T02:57:45;99758.44;;;3.77;100.00
13080;BME280;6606;49.154;9.280;2023-04-26T03:00:28;99760.16;;;3.78;100.00
13080;BME280;6606;49.154;9.280;2023-04-26T03:03:11;99767.09;;;3.80;100.00
13080;BME280;6606;49.154;9.280;2023-04-26T03:05:53;99755.81;;;3.77;100.00
13080;BME280;6606;49.154;9.280;2023-04-26T03:08:34;99764.69;;;3.71;100.00
13080;BME280;6606;49.154;9.280;2023-04-26T03:11:17;99758.63;;;3.67;100.00
13080;BME280;6606;49.154;9.280;2023-04-26T03:14:00;99750.03;;;3.61;100.00
13080;BME280;6606;49.154;9.280;2023-04-26T03:16:45;99759.75;;;3.56;100.00
13080;BME280;6606;49.154;9.280;2023-04-26T03:19:28;99762.50;;;3.49;100.00
13080;BME280;6606;49.154;9.280;2023-04-26T03:22:10;99767.78;;;3.46;100.00
13080;BME280;6606;49.154;9.280;2023-04-26T03:24:55;99763.50;;;3.42;100.00
13080;BME280;6606;49.154;9.280;2023-04-26T03:27:38;99764.38;;;3.41;100.00
13080;BME280;6606;49.154;9.280;2023-04-26T03:30:20;99760.03;;;3.40;100.00
13080;BME280;6606;49.154;9.280;2023-04-26T03:33:04;99760.09;;;3.39;100.00
13080;BME280;6606;49.154;9.280;2023-04-26T03:35:45;99765.41;;;3.34;100.00
13080;BME280;6606;49.154;9.280;2023-04-26T03:38:27;99770.75;;;3.28;100.00
13080;BME280;6606;49.154;9.280;2023-04-26T03:41:09;99767.31;;;3.26;100.00
13080;BME280;6606;49.154;9.280;2023-04-26T03:43:51;99768.31;;;3.20;100.00
13080;BME280;6606;49.154;9.280;2023-04-26T03:46:55;99773.63;;;3.16;100.00
13080;BME280;6606;49.154;9.280;2023-04-26T03:49:38;99778.06;;;3.11;100.00
13080;BME280;6606;49.154;9.280;2023-04-26T03:52:20;99772.91;;;3.07;100.00
13080;BME280;6606;49.154;9.280;2023-04-26T03:55:02;99767.75;;;3.03;100.00
13080;BME280;6606;49.154;9.280;2023-04-26T03:57:44;99773.00;;;3.01;100.00
13080;BME280;6606;49.154;9.280;2023-04-26T04:00:26;99770.41;;;3.00;100.00
13080;BME280;6606;49.154;9.280;2023-04-26T04:03:08;99779.13;;;2.99;100.00
13080;BME280;6606;49.154;9.280;2023-04-26T04:05:51;99778.34;;;2.95;100.00
13080;BME280;6606;49.154;9.280;2023-04-26T04:08:33;99778.34;;;2.94;100.00
13080;BME280;6606;49.154;9.280;2023-04-26T04:11:15;99776.72;;;2.88;100.00
13080;BME280;6606;49.154;9.280;2023-04-26T04:13:57;99783.69;;;2.89;100.00
13080;BME280;6606;49.154;9.280;2023-04-26T04:16:39;99783.69;;;2.89;100.00
13080;BME280;6606;49.154;9.280;2023-04-26T04:19:23;99787.22;;;2.86;100.00
13080;BME280;6606;49.154;9.280;2023-04-26T04:22:06;99785.47;;;2.89;100.00
13080;BME280;6606;49.154;9.280;2023-04-26T04:24:50;99774.06;;;2.91;100.00
13080;BME280;6606;49.154;9.280;2023-04-26T04:27:32;99783.63;;;2.92;100.00
13080;BME280;6606;49.154;9.280;2023-04-26T04:30:14;99784.47;;;2.94;100.00
13080;BME280;6606;49.154;9.280;2023-04-26T04:32:56;99776.56;;;2.97;100.00
13080;BME280;6606;49.154;9.280;2023-04-26T04:35:39;99784.38;;;3.00;100.00
13080;BME280;6606;49.154;9.280;2023-04-26T04:38:23;99786.00;;;3.06;100.00
13080;BME280;6606;49.154;9.280;2023-04-26T04:41:06;99785.03;;;3.12;100.00
13080;BME280;6606;49.154;9.280;2023-04-26T04:43:48;99797.13;;;3.19;100.00
13080;BME280;6606;49.154;9.280;2023-04-26T04:46:30;99795.34;;;3.21;100.00
13080;BME280;6606;49.154;9.280;2023-04-26T04:49:13;99790.06;;;3.24;100.00
13080;BME280;6606;49.154;9.280;2023-04-26T04:51:56;99792.53;;;3.30;100.00
13080;BME280;6606;49.154;9.280;2023-04-26T04:54:40;99801.25;;;3.32;100.00
13080;BME280;6606;49.154;9.280;2023-04-26T04:57:22;99796.78;;;3.37;100.00
13080;BME280;6606;49.154;9.280;2023-04-26T05:00:05;99796.66;;;3.43;100.00
13080;BME280;6606;49.154;9.280;2023-04-26T05:02:53;99794.75;;;3.51;100.00
13080;BME280;6606;49.154;9.280;2023-04-26T05:05:35;99803.38;;;3.57;100.00
13080;BME280;6606;49.154;9.280;2023-04-26T05:08:18;99808.47;;;3.64;100.00
13080;BME280;6606;49.154;9.280;2023-04-26T05:11:01;99808.34;;;3.72;100.00
13080;BME280;6606;49.154;9.280;2023-04-26T05:13:43;99810.81;;;3.78;100.00
13080;BME280;6606;49.154;9.280;2023-04-26T05:16:25;99814.91;;;3.93;100.00
13080;BME280;6606;49.154;9.280;2023-04-26T05:19:09;99814.75;;;3.99;100.00
13080;BME280;6606;49.154;9.280;2023-04-26T05:21:52;99822.34;;;4.13;100.00
13080;BME280;6606;49.154;9.280;2023-04-26T05:24:34;99823.03;;;4.21;100.00
13080;BME280;6606;49.154;9.280;2023-04-26T05:27:17;99822.00;;;4.28;100.00
13080;BME280;6606;49.154;9.280;2023-04-26T05:30:28;99822.72;;;4.35;100.00
13080;BME280;6606;49.154;9.280;2023-04-26T05:33:32;99832.91;;;4.49;100.00
13080;BME280;6606;49.154;9.280;2023-04-26T05:36:29;99834.50;;;4.56;100.00
13080;BME280;6606;49.154;9.280;2023-04-26T05:39:11;99840.38;;;4.66;100.00
13080;BME280;6606;49.154;9.280;2023-04-26T05:41:53;99846.28;;;4.75;100.00
13080;BME280;6606;49.154;9.280;2023-04-26T05:44:36;99835.53;;;4.86;100.00
13080;BME280;6606;49.154;9.280;2023-04-26T05:47:18;99841.31;;;5.00;100.00
13080;BME280;6606;49.154;9.280;2023-04-26T05:50:01;99843.69;;;5.11;100.00
13080;BME280;6606;49.154;9.280;2023-04-26T05:52:43;99832.91;;;5.20;100.00
13080;BME280;6606;49.154;9.280;2023-04-26T05:55:25;99842.50;;;5.23;100.00
13080;BME280;6606;49.154;9.280;2023-04-26T05:58:07;99846.59;;;5.35;100.00
13080;BME280;6606;49.154;9.280;2023-04-26T06:00:50;99841.72;;;5.52;100.00
13080;BME280;6606;49.154;9.280;2023-04-26T06:03:32;99846.56;;;5.67;100.00
13080;BME280;6606;49.154;9.280;2023-04-26T06:06:14;99844.28;;;5.86;100.00
13080;BME280;6606;49.154;9.280;2023-04-26T06:08:56;99848.31;;;6.00;100.00
13080;BME280;6606;49.154;9.280;2023-04-26T06:11:37;99848.09;;;6.07;100.00
13080;BME280;6606;49.154;9.280;2023-04-26T06:14:19;99845.03;;;6.23;100.00
13080;BME280;6606;49.154;9.280;2023-04-26T06:17:03;99838.50;;;6.36;100.00
13080;BME280;6606;49.154;9.280;2023-04-26T06:19:45;99840.78;;;6.47;100.00
13080;BME280;6606;49.154;9.280;2023-04-26T06:22:26;99841.56;;;6.50;100.00
13080;BME280;6606;49.154;9.280;2023-04-26T06:25:08;99847.09;;;6.69;100.00
13080;BME280;6606;49.154;9.280;2023-04-26T06:27:52;99849.38;;;6.80;100.00
13080;BME280;6606;49.154;9.280;2023-04-26T06:30:33;99848.50;;;6.81;100.00
13080;BME280;6606;49.154;9.280;2023-04-26T06:33:17;99845.16;;;7.02;100.00
13080;BME280;6606;49.154;9.280;2023-04-26T06:35:59;99843.13;;;7.11;100.00
13080;BME280;6606;49.154;9.280;2023-04-26T06:38:41;99852.25;;;7.27;100.00
13080;BME280;6606;49.154;9.280;2023-04-26T06:41:23;99851.03;;;7.37;100.00
13080;BME280;6606;49.154;9.280;2023-04-26T06:44:04;99849.78;;;7.47;100.00
13080;BME280;6606;49.154;9.280;2023-04-26T06:46:46;99856.22;;;7.65;100.00
13080;BME280;6606;49.154;9.280;2023-04-26T06:49:30;99852.38;;;7.74;100.00
13080;BME280;6606;49.154;9.280;2023-04-26T06:52:12;99854.84;;;7.79;100.00
13080;BME280;6606;49.154;9.280;2023-04-26T06:54:54;99857.44;;;8.04;100.00
13080;BME280;6606;49.154;9.280;2023-04-26T06:57:35;99860.28;;;7.99;100.00
13080;BME280;6606;49.154;9.280;2023-04-26T07:00:18;99850.06;;;8.13;100.00
13080;BME280;6606;49.154;9.280;2023-04-26T07:03:00;99853.44;;;8.17;100.00
13080;BME280;6606;49.154;9.280;2023-04-26T07:05:43;99855.25;;;8.40;100.00
13080;BME280;6606;49.154;9.280;2023-04-26T07:08:24;99849.00;;;8.65;100.00
13080;BME280;6606;49.154;9.280;2023-04-26T07:11:08;99845.31;;;8.91;100.00
13080;BME280;6606;49.154;9.280;2023-04-26T07:13:50;99839.41;;;10.46;100.00
13080;BME280;6606;49.154;9.280;2023-04-26T07:16:32;99828.81;;;13.90;95.20
13080;BME280;6606;49.154;9.280;2023-04-26T07:19:13;99814.41;;;16.34;69.11
13080;BME280;6606;49.154;9.280;2023-04-26T07:21:57;99815.81;;;18.83;54.41
13080;BME280;6606;49.154;9.280;2023-04-26T07:24:38;99808.53;;;19.81;41.34
13080;BME280;6606;49.154;9.280;2023-04-26T07:27:20;99805.94;;;19.16;40.28
13080;BME280;6606;49.154;9.280;2023-04-26T07:30:02;99807.38;;;19.41;37.92
13080;BME280;6606;49.154;9.280;2023-04-26T07:32:45;99796.00;;;20.72;37.96
13080;BME280;6606;49.154;9.280;2023-04-26T07:35:26;99800.69;;;19.98;38.47
13080;BME280;6606;49.154;9.280;2023-04-26T07:38:09;99803.00;;;18.64;43.03
13080;BME280;6606;49.154;9.280;2023-04-26T07:40:54;99797.59;;;21.23;37.19
13080;BME280;6606;49.154;9.280;2023-04-26T07:43:36;99798.31;;;21.44;33.71
13080;BME280;6606;49.154;9.280;2023-04-26T07:46:18;99789.22;;;21.65;29.72
13080;BME280;6606;49.154;9.280;2023-04-26T07:49:00;99804.69;;;21.43;31.80
13080;BME280;6606;49.154;9.280;2023-04-26T07:51:42;99797.00;;;20.90;32.36
13080;BME280;6606;49.154;9.280;2023-04-26T07:54:26;99789.22;;;20.97;33.27
13080;BME280;6606;49.154;9.280;2023-04-26T07:57:08;99796.03;;;22.44;29.51
13080;BME280;6606;49.154;9.280;2023-04-26T07:59:50;99788.66;;;23.09;29.92
13080;BME280;6606;49.154;9.280;2023-04-26T08:02:32;99796.81;;;22.81;28.63
13080;BME280;6606;49.154;9.280;2023-04-26T08:05:14;99783.97;;;23.11;28.49
13080;BME280;6606;49.154;9.280;2023-04-26T08:07:55;99796.34;;;21.93;27.68
13080;BME280;6606;49.154;9.280;2023-04-26T08:10:40;99788.81;;;21.21;28.48
13080;BME280;6606;49.154;9.280;2023-04-26T08:13:23;99792.81;;;22.30;28.63
13080;BME280;6606;49.154;9.280;2023-04-26T08:16:05;99797.88;;;22.06;28.24
13080;BME280;6606;49.154;9.280;2023-04-26T08:18:47;99794.34;;;21.48;28.75
13080;BME280;6606;49.154;9.280;2023-04-26T08:21:28;99802.56;;;20.89;29.01
13080;BME280;6606;49.154;9.280;2023-04-26T08:24:11;99805.03;;;19.48;29.63
13080;BME280;6606;49.154;9.280;2023-04-26T08:26:56;99802.25;;;18.74;31.43
13080;BME280;6606;49.154;9.280;2023-04-26T08:29:38;99803.50;;;17.68;34.59
13080;BME280;6606;49.154;9.280;2023-04-26T08:32:25;99806.44;;;15.95;36.71
13080;BME280;6606;49.154;9.280;2023-04-26T08:35:42;99815.13;;;14.66;39.34
13080;BME280;6606;49.154;9.280;2023-04-26T08:38:24;99817.19;;;14.20;42.04
13080;BME280;6606;49.154;9.280;2023-04-26T08:41:08;99815.56;;;13.74;45.11
13080;BME280;6606;49.154;9.280;2023-04-26T08:43:54;99821.66;;;13.32;48.35
13080;BME280;6606;49.154;9.280;2023-04-26T08:46:46;99821.84;;;13.29;45.90
13080;BME280;6606;49.154;9.280;2023-04-26T08:49:38;99820.13;;;13.72;45.86
13080;BME280;6606;49.154;9.280;2023-04-26T08:52:21;99814.69;;;13.59;49.17
13080;BME280;6606;49.154;9.280;2023-04-26T08:55:04;99815.53;;;13.60;46.07
13080;BME280;6606;49.154;9.280;2023-04-26T08:57:48;99814.19;;;13.23;45.44
13080;BME280;6606;49.154;9.280;2023-04-26T09:00:32;99811.75;;;13.04;48.90
13080;BME280;6606;49.154;9.280;2023-04-26T09:03:14;99807.78;;;13.27;46.39
13080;BME280;6606;49.154;9.280;2023-04-26T09:05:56;99811.25;;;13.57;48.43
13080;BME280;6606;49.154;9.280;2023-04-26T09:08:40;99802.78;;;13.51;50.14
13080;BME280;6606;49.154;9.280;2023-04-26T09:11:22;99808.94;;;13.37;50.74
13080;BME280;6606;49.154;9.280;2023-04-26T09:14:04;99810.31;;;13.73;51.03
13080;BME280;6606;49.154;9.280;2023-04-26T09:16:47;99805.69;;;13.32;47.27
13080;BME280;6606;49.154;9.280;2023-04-26T09:19:34;99810.16;;;13.90;46.26
13080;BME280;6606;49.154;9.280;2023-04-26T09:22:26;99805.56;;;13.63;47.54
13080;BME280;6606;49.154;9.280;2023-04-26T09:25:09;99808.09;;;13.36;50.79
13080;BME280;6606;49.154;9.280;2023-04-26T09:27:52;99800.25;;;13.63;49.36
13080;BME280;6606;49.154;9.280;2023-04-26T09:30:37;99798.44;;;13.78;49.00
13080;BME280;6606;49.154;9.280;2023-04-26T09:33:21;99797.00;;;14.01;47.32
13080;BME280;6606;49.154;9.280;2023-04-26T09:36:12;99796.50;;;14.23;48.47
13080;BME280;6606;49.154;9.280;2023-04-26T09:38:53;99793.13;;;14.48;43.97
13080;BME280;6606;49.154;9.280;2023-04-26T09:41:42;99788.78;;;14.47;44.44
13080;BME280;6606;49.154;9.280;2023-04-26T09:44:25;99791.44;;;14.47;43.11
13080;BME280;6606;49.154;9.280;2023-04-26T09:47:08;99789.19;;;14.27;43.00
13080;BME280;6606;49.154;9.280;2023-04-26T09:49:52;99785.03;;;14.08;45.62
13080;BME280;6606;49.154;9.280;2023-04-26T09:52:41;99773.72;;;14.46;44.24
13080;BME280;6606;49.154;9.280;2023-04-26T09:55:28;99776.16;;;14.49;43.24
13080;BME280;6606;49.154;9.280;2023-04-26T09:58:10;99768.53;;;14.72;41.53
13080;BME280;6606;49.154;9.280;2023-04-26T10:00:51;99773.50;;;14.64;40.43
13080;BME280;6606;49.154;9.280;2023-04-26T10:03:34;99776.41;;;15.01;41.13
13080;BME280;6606;49.154;9.280;2023-04-26T10:06:18;99772.28;;;15.22;40.03
13080;BME280;6606;49.154;9.280;2023-04-26T10:09:00;99776.66;;;14.83;38.26
13080;BME280;6606;49.154;9.280;2023-04-26T10:11:43;99782.47;;;14.48;39.68
13080;BME280;6606;49.154;9.280;2023-04-26T10:14:25;99781.72;;;14.61;38.41
13080;BME280;6606;49.154;9.280;2023-04-26T10:17:07;99778.78;;;14.78;40.31
13080;BME280;6606;49.154;9.280;2023-04-26T10:19:52;99770.63;;;15.59;39.86
13080;BME280;6606;49.154;9.280;2023-04-26T10:22:41;99772.13;;;15.51;36.85
13080;BME280;6606;49.154;9.280;2023-04-26T10:25:33;99772.63;;;15.43;34.10
13080;BME280;6606;49.154;9.280;2023-04-26T10:28:16;99770.22;;;15.78;37.09
13080;BME280;6606;49.154;9.280;2023-04-26T10:30:58;99771.78;;;15.68;37.01
13080;BME280;6606;49.154;9.280;2023-04-26T10:33:40;99766.00;;;15.36;37.23
13080;BME280;6606;49.154;9.280;2023-04-26T10:36:22;99763.22;;;16.14;36.84
13080;BME280;6606;49.154;9.280;2023-04-26T10:39:19;99751.88;;;16.71;36.63
13080;BME280;6606;49.154;9.280;2023-04-26T10:42:25;99745.75;;;16.82;34.76
13080;BME280;6606;49.154;9.280;2023-04-26T10:45:25;99746.06;;;17.37;34.87
13080;BME280;6606;49.154;9.280;2023-04-26T10:48:14;99745.81;;;17.51;32.59
13080;BME280;6606;49.154;9.280;2023-04-26T10:51:06;99749.44;;;17.28;31.99
13080;BME280;6606;49.154;9.280;2023-04-26T10:53:57;99737.09;;;17.83;31.67
13080;BME280;6606;49.154;9.280;2023-04-26T10:56:51;99742.88;;;17.43;31.72
13080;BME280;6606;49.154;9.280;2023-04-26T10:59:33;99734.06;;;16.59;32.85
13080;BME280;6606;49.154;9.280;2023-04-26T11:02:15;99747.47;;;16.22;34.17
13080;BME280;6606;49.154;9.280;2023-04-26T11:04:56;99744.00;;;15.96;33.03
13080;BME280;6606;49.154;9.280;2023-04-26T11:07:38;99737.16;;;15.79;31.75
13080;BME280;6606;49.154;9.280;2023-04-26T11:10:21;99736.19;;;15.93;34.98
13080;BME280;6606;49.154;9.280;2023-04-26T11:13:04;99727.22;;;15.43;32.35
13080;BME280;6606;49.154;9.280;2023-04-26T11:15:46;99725.00;;;16.49;31.46
13080;BME280;6606;49.154;9.280;2023-04-26T11:18:34;99724.94;;;16.38;33.08
13080;BME280;6606;49.154;9.280;2023-04-26T11:21:20;99719.84;;;16.22;33.77
13080;BME280;6606;49.154;9.280;2023-04-26T11:24:02;99726.75;;;16.61;31.80
13080;BME280;6606;49.154;9.280;2023-04-26T11:26:50;99722.44;;;16.71;32.33
13080;BME280;6606;49.154;9.280;2023-04-26T11:29:33;99723.00;;;16.88;32.64
13080;BME280;6606;49.154;9.280;2023-04-26T11:32:15;99707.88;;;16.76;32.69
13080;BME280;6606;49.154;9.280;2023-04-26T11:34:59;99702.56;;;16.87;32.39
13080;BME280;6606;49.154;9.280;2023-04-26T11:37:43;99698.69;;;16.19;32.57
13080;BME280;6606;49.154;9.280;2023-04-26T11:40:30;99695.63;;;16.36;33.43
13080;BME280;6606;49.154;9.280;2023-04-26T11:43:12;99693.38;;;16.06;33.23
13080;BME280;6606;49.154;9.280;2023-04-26T11:45:58;99700.06;;;15.36;33.00
13080;BME280;6606;49.154;9.280;2023-04-26T11:48:41;99690.69;;;16.06;32.90
13080;BME280;6606;49.154;9.280;2023-04-26T11:51:23;99687.19;;;16.05;35.19
13080;BME280;6606;49.154;9.280;2023-04-26T11:54:05;99692.69;;;15.78;35.02
13080;BME280;6606;49.154;9.280;2023-04-26T11:56:46;99688.63;;;16.46;32.73
13080;BME280;6606;49.154;9.280;2023-04-26T11:59:29;99686.78;;;16.71;33.30
13080;BME280;6606;49.154;9.280;2023-04-26T12:02:12;99679.19;;;16.78;32.83
13080;BME280;6606;49.154;9.280;2023-04-26T12:04:57;99676.78;;;16.38;33.83
13080;BME280;6606;49.154;9.280;2023-04-26T12:07:40;99667.16;;;15.61;35.10
13080;BME280;6606;49.154;9.280;2023-04-26T12:10:24;99671.44;;;15.64;34.32
13080;BME280;6606;49.154;9.280;2023-04-26T12:13:07;99675.06;;;15.76;36.49
13080;BME280;6606;49.154;9.280;2023-04-26T12:15:49;99671.66;;;16.11;35.38
13080;BME280;6606;49.154;9.280;2023-04-26T12:18:33;99678.56;;;16.26;35.00
13080;BME280;6606;49.154;9.280;2023-04-26T12:21:15;99672.44;;;16.00;34.24
13080;BME280;6606;49.154;9.280;2023-04-26T12:23:57;99679.00;;;16.20;35.75
13080;BME280;6606;49.154;9.280;2023-04-26T12:26:41;99665.28;;;15.88;34.44
13080;BME280;6606;49.154;9.280;2023-04-26T12:29:24;99665.47;;;16.10;33.93
13080;BME280;6606;49.154;9.280;2023-04-26T12:32:05;99669.88;;;16.70;33.90
13080;BME280;6606;49.154;9.280;2023-04-26T12:34:48;99676.66;;;16.15;33.77
13080;BME280;6606;49.154;9.280;2023-04-26T12:37:30;99667.81;;;15.52;36.00
13080;BME280;6606;49.154;9.280;2023-04-26T12:40:12;99670.19;;;15.06;37.66
13080;BME280;6606;49.154;9.280;2023-04-26T12:42:55;99666.09;;;14.87;38.08
13080;BME280;6606;49.154;9.280;2023-04-26T12:45:37;99651.09;;;15.87;35.82
13080;BME280;6606;49.154;9.280;2023-04-26T12:48:19;99653.69;;;16.37;35.59
13080;BME280;6606;49.154;9.280;2023-04-26T12:51:02;99648.81;;;17.01;34.92
13080;BME280;6606;49.154;9.280;2023-04-26T12:53:44;99650.16;;;16.71;34.16
13080;BME280;6606;49.154;9.280;2023-04-26T12:56:26;99658.13;;;17.42;35.25
13080;BME280;6606;49.154;9.280;2023-04-26T12:59:09;99648.47;;;17.17;33.25
13080;BME280;6606;49.154;9.280;2023-04-26T13:01:51;99651.47;;;16.90;32.85
13080;BME280;6606;49.154;9.280;2023-04-26T13:04:33;99654.03;;;16.91;33.42
13080;BME280;6606;49.154;9.280;2023-04-26T13:07:16;99651.00;;;16.72;32.25
13080;BME280;6606;49.154;9.280;2023-04-26T13:09:58;99657.31;;;16.84;32.57
13080;BME280;6606;49.154;9.280;2023-04-26T13:12:40;99663.50;;;16.25;33.98
13080;BME280;6606;49.154;9.280;2023-04-26T13:15:21;99656.78;;;16.43;32.47
13080;BME280;6606;49.154;9.280;2023-04-26T13:18:04;99647.44;;;16.49;32.22
13080;BME280;6606;49.154;9.280;2023-04-26T13:20:46;99645.28;;;16.65;35.63
13080;BME280;6606;49.154;9.280;2023-04-26T13:23:29;99650.47;;;15.83;34.11
13080;BME280;6606;49.154;9.280;2023-04-26T13:26:10;99660.34;;;15.06;35.70
13080;BME280;6606;49.154;9.280;2023-04-26T13:28:54;99652.44;;;15.43;35.56
13080;BME280;6606;49.154;9.280;2023-04-26T13:31:35;99653.28;;;15.44;33.79
13080;BME280;6606;49.154;9.280;2023-04-26T13:34:19;99646.03;;;16.19;32.27
13080;BME280;6606;49.154;9.280;2023-04-26T13:37:01;99645.44;;;17.22;31.83
13080;BME280;6606;49.154;9.280;2023-04-26T13:39:45;99637.88;;;17.04;33.08
13080;BME280;6606;49.154;9.280;2023-04-26T13:42:27;99643.59;;;17.11;36.12
13080;BME280;6606;49.154;9.280;2023-04-26T13:45:09;99638.63;;;16.71;34.10
13080;BME280;6606;49.154;9.280;2023-04-26T13:47:51;99648.34;;;16.13;33.26
13080;BME280;6606;49.154;9.280;2023-04-26T13:50:34;99641.69;;;15.81;36.13
13080;BME280;6606;49.154;9.280;2023-04-26T13:53:15;99648.13;;;16.51;36.35
13080;BME280;6606;49.154;9.280;2023-04-26T13:56:00;99648.88;;;16.53;33.50
13080;BME280;6606;49.154;9.280;2023-04-26T13:58:42;99646.63;;;16.36;33.58
13080;BME280;6606;49.154;9.280;2023-04-26T14:01:24;99641.44;;;16.21;34.90
13080;BME280;6606;49.154;9.280;2023-04-26T14:04:06;99642.78;;;16.51;34.79
13080;BME280;6606;49.154;9.280;2023-04-26T14:06:48;99637.81;;;16.46;36.91
13080;BME280;6606;49.154;9.280;2023-04-26T14:09:30;99643.97;;;16.12;35.71
13080;BME280;6606;49.154;9.280;2023-04-26T14:12:13;99640.13;;;16.03;34.80
13080;BME280;6606;49.154;9.280;2023-04-26T14:14:56;99647.09;;;15.56;35.71
13080;BME280;6606;49.154;9.280;2023-04-26T14:17:37;99636.66;;;15.27;35.06
13080;BME280;6606;49.154;9.280;2023-04-26T14:20:19;99629.78;;;15.36;34.92
13080;BME280;6606;49.154;9.280;2023-04-26T14:23:01;99627.94;;;15.62;36.14
13080;BME280;6606;49.154;9.280;2023-04-26T14:25:43;99630.84;;;15.46;36.23
13080;BME280;6606;49.154;9.280;2023-04-26T14:28:26;99632.75;;;15.70;37.48
13080;BME280;6606;49.154;9.280;2023-04-26T14:31:08;99635.50;;;15.68;36.25
13080;BME280;6606;49.154;9.280;2023-04-26T14:33:50;99637.03;;;16.09;32.96
13080;BME280;6606;49.154;9.280;2023-04-26T14:36:32;99627.56;;;16.76;30.92